sensor_id;sensor_type;location;lat;lon;timestamp;P1;durP1;ratioP1;P2;durP2;ratioP2
53931;SDS011;39844;52.496;13.482;2024-02-28T00:02:22;8.90;;;4.80;;
53931;SDS011;39844;52.496;13.482;2024-02-28T00:04:47;9.23;;;5.00;;
53931;SDS011;39844;52.496;13.482;2024-02-28T00:07:13;7.63;;;5.00;;
53931;SDS011;39844;52.496;13.482;2024-02-28T00:09:38;8.77;;;5.13;;
53931;SDS011;39844;52.496;13.482;2024-02-28T00:12:03;7.30;;;4.53;;
53931;SDS011;39844;52.496;13.482;2024-02-28T00:14:29;7.37;;;4.77;;
53931;SDS011;39844;52.496;13.482;2024-02-28T00:16:54;7.97;;;4.83;;
53931;SDS011;39844;52.496;13.482;2024-02-28T00:19:19;13.17;;;5.53;;
53931;SDS011;39844;52.496;13.482;2024-02-28T00:21:44;9.57;;;4.97;;
53931;SDS011;39844;52.496;13.482;2024-02-28T00:24:10;8.93;;;5.17;;
53931;SDS011;39844;52.496;13.482;2024-02-28T00:26:35;8.20;;;4.73;;
53931;SDS011;39844;52.496;13.482;2024-02-28T00:29:01;7.47;;;4.57;;
53931;SDS011;39844;52.496;13.482;2024-02-28T00:31:26;8.83;;;5.03;;
53931;SDS011;39844;52.496;13.482;2024-02-28T00:33:51;8.27;;;5.03;;
53931;SDS011;39844;52.496;13.482;2024-02-28T00:36:17;12.97;;;5.20;;
53931;SDS011;39844;52.496;13.482;2024-02-28T00:38:43;10.63;;;5.77;;
53931;SDS011;39844;52.496;13.482;2024-02-28T00:41:08;8.60;;;4.40;;
53931;SDS011;39844;52.496;13.482;2024-02-28T00:43:34;9.10;;;5.33;;
53931;SDS011;39844;52.496;13.482;2024-02-28T00:45:59;7.77;;;4.77;;
53931;SDS011;39844;52.496;13.482;2024-02-28T00:48:25;10.50;;;5.70;;
53931;SDS011;39844;52.496;13.482;2024-02-28T00:50:50;8.87;;;4.43;;
53931;SDS011;39844;52.496;13.482;2024-02-28T00:53:16;8.73;;;3.97;;
53931;SDS011;39844;52.496;13.482;2024-02-28T00:55:42;7.07;;;4.87;;
53931;SDS011;39844;52.496;13.482;2024-02-28T00:58:07;6.40;;;4.30;;
53931;SDS011;39844;52.496;13.482;2024-02-28T01:00:33;7.43;;;4.43;;
53931;SDS011;39844;52.496;13.482;2024-02-28T01:02:58;10.80;;;5.37;;
53931;SDS011;39844;52.496;13.482;2024-02-28T01:05:23;7.37;;;4.20;;
53931;SDS011;39844;52.496;13.482;2024-02-28T01:07:48;8.07;;;4.73;;
53931;SDS011;39844;52.496;13.482;2024-02-28T01:10:14;8.40;;;5.00;;
53931;SDS011;39844;52.496;13.482;2024-02-28T01:12:39;7.20;;;5.20;;
53931;SDS011;39844;52.496;13.482;2024-02-28T01:15:05;7.53;;;4.70;;
53931;SDS011;39844;52.496;13.482;2024-02-28T01:17:30;7.57;;;4.77;;
53931;SDS011;39844;52.496;13.482;2024-02-28T01:19:56;6.40;;;4.00;;
53931;SDS011;39844;52.496;13.482;2024-02-28T01:22:21;10.87;;;4.93;;
53931;SDS011;39844;52.496;13.482;2024-02-28T01:24:47;7.23;;;4.47;;
53931;SDS011;39844;52.496;13.482;2024-02-28T01:27:12;5.17;;;3.90;;
53931;SDS011;39844;52.496;13.482;2024-02-28T01:29:37;8.43;;;4.97;;
53931;SDS011;39844;52.496;13.482;2024-02-28T01:32:03;7.87;;;5.20;;
53931;SDS011;39844;52.496;13.482;2024-02-28T01:34:28;6.13;;;4.50;;
53931;SDS011;39844;52.496;13.482;2024-02-28T01:36:53;7.43;;;5.40;;
53931;SDS011;39844;52.496;13.482;2024-02-28T01:39:19;7.07;;;4.67;;
53931;SDS011;39844;52.496;13.482;2024-02-28T01:41:51;6.97;;;4.50;;
53931;SDS011;39844;52.496;13.482;2024-02-28T01:44:17;7.37;;;4.30;;
53931;SDS011;39844;52.496;13.482;2024-02-28T01:46:42;9.67;;;5.07;;
53931;SDS011;39844;52.496;13.482;2024-02-28T01:49:08;7.20;;;4.70;;
53931;SDS011;39844;52.496;13.482;2024-02-28T01:51:33;7.30;;;4.50;;
53931;SDS011;39844;52.496;13.482;2024-02-28T01:53:59;10.10;;;5.13;;
53931;SDS011;39844;52.496;13.482;2024-02-28T01:56:24;9.90;;;5.03;;
53931;SDS011;39844;52.496;13.482;2024-02-28T01:58:51;7.37;;;4.17;;
53931;SDS011;39844;52.496;13.482;2024-02-28T02:01:17;11.57;;;4.57;;
53931;SDS011;39844;52.496;13.482;2024-02-28T02:03:46;7.30;;;4.43;;
53931;SDS011;39844;52.496;13.482;2024-02-28T02:06:11;6.27;;;4.10;;
53931;SDS011;39844;52.496;13.482;2024-02-28T02:08:37;7.03;;;4.37;;
53931;SDS011;39844;52.496;13.482;2024-02-28T02:11:03;5.87;;;4.00;;
53931;SDS011;39844;52.496;13.482;2024-02-28T02:13:29;7.57;;;4.03;;
53931;SDS011;39844;52.496;13.482;2024-02-28T02:15:54;7.07;;;4.00;;
53931;SDS011;39844;52.496;13.482;2024-02-28T02:18:19;5.77;;;3.50;;
53931;SDS011;39844;52.496;13.482;2024-02-28T02:20:46;6.40;;;3.63;;
53931;SDS011;39844;52.496;13.482;2024-02-28T02:23:15;8.03;;;4.43;;
53931;SDS011;39844;52.496;13.482;2024-02-28T02:25:47;5.53;;;3.33;;
53931;SDS011;39844;52.496;13.482;2024-02-28T02:28:13;6.63;;;3.83;;
53931;SDS011;39844;52.496;13.482;2024-02-28T02:30:39;11.80;;;5.07;;
53931;SDS011;39844;52.496;13.482;2024-02-28T02:33:05;6.63;;;4.43;;
53931;SDS011;39844;52.496;13.482;2024-02-28T02:35:30;6.20;;;4.37;;
53931;SDS011;39844;52.496;13.482;2024-02-28T02:37:56;8.17;;;4.20;;
53931;SDS011;39844;52.496;13.482;2024-02-28T02:40:21;5.90;;;4.20;;
53931;SDS011;39844;52.496;13.482;2024-02-28T02:42:46;7.73;;;4.37;;
53931;SDS011;39844;52.496;13.482;2024-02-28T02:45:12;6.40;;;4.20;;
53931;SDS011;39844;52.496;13.482;2024-02-28T02:47:37;4.53;;;3.47;;
53931;SDS011;39844;52.496;13.482;2024-02-28T02:50:03;4.27;;;3.50;;
53931;SDS011;39844;52.496;13.482;2024-02-28T02:52:28;6.20;;;4.00;;
53931;SDS011;39844;52.496;13.482;2024-02-28T02:54:54;6.40;;;3.97;;
53931;SDS011;39844;52.496;13.482;2024-02-28T02:57:19;7.77;;;3.80;;
53931;SDS011;39844;52.496;13.482;2024-02-28T02:59:45;5.77;;;3.10;;
53931;SDS011;39844;52.496;13.482;2024-02-28T03:02:10;5.17;;;3.47;;
53931;SDS011;39844;52.496;13.482;2024-02-28T03:04:35;5.60;;;3.63;;
53931;SDS011;39844;52.496;13.482;2024-02-28T03:07:01;5.83;;;4.03;;
53931;SDS011;39844;52.496;13.482;2024-02-28T03:09:26;6.07;;;3.40;;
53931;SDS011;39844;52.496;13.482;2024-02-28T03:11:51;4.90;;;3.37;;
53931;SDS011;39844;52.496;13.482;2024-02-28T03:14:16;5.57;;;3.33;;
53931;SDS011;39844;52.496;13.482;2024-02-28T03:16:42;7.33;;;3.97;;
53931;SDS011;39844;52.496;13.482;2024-02-28T03:19:08;4.60;;;3.20;;
53931;SDS011;39844;52.496;13.482;2024-02-28T03:21:33;5.37;;;3.40;;
53931;SDS011;39844;52.496;13.482;2024-02-28T03:23:58;3.60;;;3.10;;
53931;SDS011;39844;52.496;13.482;2024-02-28T03:26:24;3.53;;;2.87;;
53931;SDS011;39844;52.496;13.482;2024-02-28T03:28:49;5.90;;;3.13;;
53931;SDS011;39844;52.496;13.482;2024-02-28T03:31:14;4.67;;;2.77;;
53931;SDS011;39844;52.496;13.482;2024-02-28T03:33:39;4.17;;;3.03;;
53931;SDS011;39844;52.496;13.482;2024-02-28T03:36:05;5.67;;;3.50;;
53931;SDS011;39844;52.496;13.482;2024-02-28T03:38:30;5.00;;;3.20;;
53931;SDS011;39844;52.496;13.482;2024-02-28T03:40:56;3.93;;;3.17;;
53931;SDS011;39844;52.496;13.482;2024-02-28T03:43:21;7.37;;;3.30;;
53931;SDS011;39844;52.496;13.482;2024-02-28T03:45:46;3.87;;;3.13;;
53931;SDS011;39844;52.496;13.482;2024-02-28T03:48:11;5.63;;;4.07;;
53931;SDS011;39844;52.496;13.482;2024-02-28T03:50:37;5.37;;;3.20;;
53931;SDS011;39844;52.496;13.482;2024-02-28T03:53:02;5.47;;;3.17;;
53931;SDS011;39844;52.496;13.482;2024-02-28T03:55:28;3.73;;;3.20;;
53931;SDS011;39844;52.496;13.482;2024-02-28T03:57:53;4.23;;;3.00;;
53931;SDS011;39844;52.496;13.482;2024-02-28T04:00:18;4.13;;;2.70;;
53931;SDS011;39844;52.496;13.482;2024-02-28T04:02:44;4.13;;;3.30;;
53931;SDS011;39844;52.496;13.482;2024-02-28T04:05:09;5.20;;;2.67;;
53931;SDS011;39844;52.496;13.482;2024-02-28T04:07:34;3.50;;;2.60;;
53931;SDS011;39844;52.496;13.482;2024-02-28T04:10:00;6.57;;;3.40;;
53931;SDS011;39844;52.496;13.482;2024-02-28T04:12:25;3.23;;;2.50;;
53931;SDS011;39844;52.496;13.482;2024-02-28T04:14:50;4.17;;;2.90;;
53931;SDS011;39844;52.496;13.482;2024-02-28T04:17:15;3.40;;;2.97;;
53931;SDS011;39844;52.496;13.482;2024-02-28T04:19:41;4.70;;;3.10;;
53931;SDS011;39844;52.496;13.482;2024-02-28T04:22:06;4.97;;;3.07;;
53931;SDS011;39844;52.496;13.482;2024-02-28T04:24:31;3.90;;;3.10;;
53931;SDS011;39844;52.496;13.482;2024-02-28T04:26:57;6.50;;;2.60;;
53931;SDS011;39844;52.496;13.482;2024-02-28T04:29:22;3.67;;;3.10;;
53931;SDS011;39844;52.496;13.482;2024-02-28T04:31:47;3.10;;;2.13;;
53931;SDS011;39844;52.496;13.482;2024-02-28T04:34:13;3.03;;;2.23;;
53931;SDS011;39844;52.496;13.482;2024-02-28T04:36:38;3.33;;;2.83;;
53931;SDS011;39844;52.496;13.482;2024-02-28T04:39:05;2.97;;;2.47;;
53931;SDS011;39844;52.496;13.482;2024-02-28T04:41:31;5.47;;;1.97;;
53931;SDS011;39844;52.496;13.482;2024-02-28T04:43:56;3.00;;;2.60;;
53931;SDS011;39844;52.496;13.482;2024-02-28T04:46:21;2.63;;;2.33;;
53931;SDS011;39844;52.496;13.482;2024-02-28T04:48:47;2.20;;;2.00;;
53931;SDS011;39844;52.496;13.482;2024-02-28T04:51:14;3.00;;;2.20;;
53931;SDS011;39844;52.496;13.482;2024-02-28T04:53:40;1.73;;;1.63;;
53931;SDS011;39844;52.496;13.482;2024-02-28T04:56:06;2.83;;;2.10;;
53931;SDS011;39844;52.496;13.482;2024-02-28T04:58:31;2.70;;;1.83;;
53931;SDS011;39844;52.496;13.482;2024-02-28T05:00:56;2.13;;;1.93;;
53931;SDS011;39844;52.496;13.482;2024-02-28T05:03:22;2.40;;;2.20;;
53931;SDS011;39844;52.496;13.482;2024-02-28T05:05:47;2.07;;;1.70;;
53931;SDS011;39844;52.496;13.482;2024-02-28T05:08:12;2.77;;;2.23;;
53931;SDS011;39844;52.496;13.482;2024-02-28T05:10:37;2.10;;;1.90;;
53931;SDS011;39844;52.496;13.482;2024-02-28T05:13:03;3.57;;;2.20;;
53931;SDS011;39844;52.496;13.482;2024-02-28T05:15:28;2.47;;;1.83;;
53931;SDS011;39844;52.496;13.482;2024-02-28T05:17:53;2.30;;;2.10;;
53931;SDS011;39844;52.496;13.482;2024-02-28T05:20:19;2.23;;;2.00;;
53931;SDS011;39844;52.496;13.482;2024-02-28T05:22:44;2.30;;;2.20;;
53931;SDS011;39844;52.496;13.482;2024-02-28T05:25:09;2.93;;;2.47;;
53931;SDS011;39844;52.496;13.482;2024-02-28T05:27:34;2.77;;;2.30;;
53931;SDS011;39844;52.496;13.482;2024-02-28T05:30:01;2.90;;;2.20;;
53931;SDS011;39844;52.496;13.482;2024-02-28T05:32:26;5.27;;;2.90;;
53931;SDS011;39844;52.496;13.482;2024-02-28T05:34:52;4.37;;;2.87;;
53931;SDS011;39844;52.496;13.482;2024-02-28T05:37:17;4.10;;;2.33;;
53931;SDS011;39844;52.496;13.482;2024-02-28T05:39:42;4.40;;;2.90;;
53931;SDS011;39844;52.496;13.482;2024-02-28T05:42:07;2.57;;;2.37;;
53931;SDS011;39844;52.496;13.482;2024-02-28T05:44:33;3.73;;;2.80;;
53931;SDS011;39844;52.496;13.482;2024-02-28T05:46:58;3.03;;;2.73;;
53931;SDS011;39844;52.496;13.482;2024-02-28T05:49:23;4.77;;;2.80;;
53931;SDS011;39844;52.496;13.482;2024-02-28T05:51:48;3.87;;;2.87;;
53931;SDS011;39844;52.496;13.482;2024-02-28T05:54:14;2.70;;;2.50;;
53931;SDS011;39844;52.496;13.482;2024-02-28T05:56:39;4.83;;;2.73;;
53931;SDS011;39844;52.496;13.482;2024-02-28T05:59:04;2.90;;;2.67;;
53931;SDS011;39844;52.496;13.482;2024-02-28T06:01:30;4.17;;;2.97;;
53931;SDS011;39844;52.496;13.482;2024-02-28T06:03:55;3.57;;;2.80;;
53931;SDS011;39844;52.496;13.482;2024-02-28T06:06:20;2.50;;;2.30;;
53931;SDS011;39844;52.496;13.482;2024-02-28T06:08:45;3.33;;;2.50;;
53931;SDS011;39844;52.496;13.482;2024-02-28T06:11:11;2.70;;;2.50;;
53931;SDS011;39844;52.496;13.482;2024-02-28T06:13:36;3.70;;;2.40;;
53931;SDS011;39844;52.496;13.482;2024-02-28T06:16:01;3.00;;;2.60;;
53931;SDS011;39844;52.496;13.482;2024-02-28T06:18:27;2.73;;;2.53;;
53931;SDS011;39844;52.496;13.482;2024-02-28T06:20:55;3.90;;;3.00;;
53931;SDS011;39844;52.496;13.482;2024-02-28T06:23:24;5.03;;;2.83;;
53931;SDS011;39844;52.496;13.482;2024-02-28T06:25:49;4.37;;;2.93;;
53931;SDS011;39844;52.496;13.482;2024-02-28T06:28:15;3.37;;;3.07;;
53931;SDS011;39844;52.496;13.482;2024-02-28T06:30:40;6.03;;;3.30;;
53931;SDS011;39844;52.496;13.482;2024-02-28T06:33:06;3.67;;;2.80;;
53931;SDS011;39844;52.496;13.482;2024-02-28T06:35:32;3.07;;;2.70;;
53931;SDS011;39844;52.496;13.482;2024-02-28T06:37:57;3.03;;;2.57;;
53931;SDS011;39844;52.496;13.482;2024-02-28T06:40:22;2.33;;;2.13;;
53931;SDS011;39844;52.496;13.482;2024-02-28T06:42:48;6.23;;;3.87;;
53931;SDS011;39844;52.496;13.482;2024-02-28T06:45:13;7.13;;;3.97;;
53931;SDS011;39844;52.496;13.482;2024-02-28T06:47:38;4.53;;;3.67;;
53931;SDS011;39844;52.496;13.482;2024-02-28T06:50:04;7.10;;;3.30;;
53931;SDS011;39844;52.496;13.482;2024-02-28T06:52:30;5.27;;;3.00;;
53931;SDS011;39844;52.496;13.482;2024-02-28T06:54:55;4.43;;;3.30;;
53931;SDS011;39844;52.496;13.482;2024-02-28T06:57:21;3.50;;;3.20;;
53931;SDS011;39844;52.496;13.482;2024-02-28T06:59:46;5.97;;;4.07;;
53931;SDS011;39844;52.496;13.482;2024-02-28T07:02:11;5.97;;;4.10;;
53931;SDS011;39844;52.496;13.482;2024-02-28T07:04:38;5.73;;;4.10;;
53931;SDS011;39844;52.496;13.482;2024-02-28T07:07:03;6.30;;;3.97;;
53931;SDS011;39844;52.496;13.482;2024-02-28T07:09:28;7.43;;;4.07;;
53931;SDS011;39844;52.496;13.482;2024-02-28T07:11:54;6.40;;;4.27;;
53931;SDS011;39844;52.496;13.482;2024-02-28T07:14:19;6.80;;;4.60;;
53931;SDS011;39844;52.496;13.482;2024-02-28T07:16:44;4.67;;;4.07;;
53931;SDS011;39844;52.496;13.482;2024-02-28T07:19:09;6.43;;;4.40;;
53931;SDS011;39844;52.496;13.482;2024-02-28T07:21:35;6.23;;;4.90;;
53931;SDS011;39844;52.496;13.482;2024-02-28T07:24:00;6.10;;;4.87;;
53931;SDS011;39844;52.496;13.482;2024-02-28T07:26:25;7.20;;;4.20;;
53931;SDS011;39844;52.496;13.482;2024-02-28T07:28:51;7.00;;;4.33;;
53931;SDS011;39844;52.496;13.482;2024-02-28T07:31:16;6.47;;;4.73;;
53931;SDS011;39844;52.496;13.482;2024-02-28T07:33:42;6.40;;;4.27;;
53931;SDS011;39844;52.496;13.482;2024-02-28T07:36:07;7.67;;;4.70;;
53931;SDS011;39844;52.496;13.482;2024-02-28T07:38:33;5.77;;;3.57;;
53931;SDS011;39844;52.496;13.482;2024-02-28T07:40:58;5.10;;;3.83;;
53931;SDS011;39844;52.496;13.482;2024-02-28T07:43:23;7.57;;;4.67;;
53931;SDS011;39844;52.496;13.482;2024-02-28T07:45:49;5.17;;;4.00;;
53931;SDS011;39844;52.496;13.482;2024-02-28T07:48:14;5.10;;;4.10;;
53931;SDS011;39844;52.496;13.482;2024-02-28T07:50:39;6.17;;;4.40;;
53931;SDS011;39844;52.496;13.482;2024-02-28T07:53:05;5.90;;;4.40;;
53931;SDS011;39844;52.496;13.482;2024-02-28T07:55:30;8.47;;;4.50;;
53931;SDS011;39844;52.496;13.482;2024-02-28T07:57:55;5.47;;;3.90;;
53931;SDS011;39844;52.496;13.482;2024-02-28T08:00:21;7.60;;;4.00;;
53931;SDS011;39844;52.496;13.482;2024-02-28T08:02:46;4.27;;;3.67;;
53931;SDS011;39844;52.496;13.482;2024-02-28T08:05:12;6.87;;;4.30;;
53931;SDS011;39844;52.496;13.482;2024-02-28T08:07:38;6.47;;;3.90;;
53931;SDS011;39844;52.496;13.482;2024-02-28T08:10:04;5.40;;;4.03;;
53931;SDS011;39844;52.496;13.482;2024-02-28T08:12:29;5.00;;;4.13;;
53931;SDS011;39844;52.496;13.482;2024-02-28T08:14:54;4.53;;;4.00;;
53931;SDS011;39844;52.496;13.482;2024-02-28T08:17:20;5.80;;;4.70;;
53931;SDS011;39844;52.496;13.482;2024-02-28T08:19:45;4.80;;;4.30;;
53931;SDS011;39844;52.496;13.482;2024-02-28T08:22:10;4.33;;;3.93;;
53931;SDS011;39844;52.496;13.482;2024-02-28T08:24:36;5.13;;;3.63;;
53931;SDS011;39844;52.496;13.482;2024-02-28T08:27:02;4.10;;;3.67;;
53931;SDS011;39844;52.496;13.482;2024-02-28T08:29:28;6.67;;;3.67;;
53931;SDS011;39844;52.496;13.482;2024-02-28T08:31:53;5.47;;;4.00;;
53931;SDS011;39844;52.496;13.482;2024-02-28T08:34:18;5.43;;;3.80;;
53931;SDS011;39844;52.496;13.482;2024-02-28T08:36:43;4.20;;;3.37;;
53931;SDS011;39844;52.496;13.482;2024-02-28T08:39:09;7.30;;;4.53;;
53931;SDS011;39844;52.496;13.482;2024-02-28T08:41:34;5.93;;;3.90;;
53931;SDS011;39844;52.496;13.482;2024-02-28T08:43:59;4.87;;;3.07;;
53931;SDS011;39844;52.496;13.482;2024-02-28T08:46:25;8.80;;;4.37;;
53931;SDS011;39844;52.496;13.482;2024-02-28T08:48:50;7.30;;;4.53;;
53931;SDS011;39844;52.496;13.482;2024-02-28T08:51:15;5.97;;;3.80;;
53931;SDS011;39844;52.496;13.482;2024-02-28T08:53:40;4.17;;;3.53;;
53931;SDS011;39844;52.496;13.482;2024-02-28T08:56:06;11.60;;;4.20;;
53931;SDS011;39844;52.496;13.482;2024-02-28T08:58:31;6.37;;;3.90;;
53931;SDS011;39844;52.496;13.482;2024-02-28T09:00:56;5.93;;;3.83;;
53931;SDS011;39844;52.496;13.482;2024-02-28T09:03:22;5.37;;;4.27;;
53931;SDS011;39844;52.496;13.482;2024-02-28T09:05:47;7.00;;;4.47;;
53931;SDS011;39844;52.496;13.482;2024-02-28T09:08:12;4.57;;;3.30;;
53931;SDS011;39844;52.496;13.482;2024-02-28T09:10:38;3.77;;;3.03;;
53931;SDS011;39844;52.496;13.482;2024-02-28T09:13:03;7.50;;;3.80;;
53931;SDS011;39844;52.496;13.482;2024-02-28T09:15:31;4.83;;;4.33;;
53931;SDS011;39844;52.496;13.482;2024-02-28T09:17:57;5.33;;;4.00;;
53931;SDS011;39844;52.496;13.482;2024-02-28T09:20:22;5.33;;;4.07;;
53931;SDS011;39844;52.496;13.482;2024-02-28T09:22:47;7.67;;;4.53;;
53931;SDS011;39844;52.496;13.482;2024-02-28T09:25:12;5.47;;;3.87;;
53931;SDS011;39844;52.496;13.482;2024-02-28T09:27:38;6.67;;;4.17;;
53931;SDS011;39844;52.496;13.482;2024-02-28T09:30:03;5.57;;;4.27;;
53931;SDS011;39844;52.496;13.482;2024-02-28T09:32:32;6.33;;;3.97;;
53931;SDS011;39844;52.496;13.482;2024-02-28T09:34:57;7.00;;;4.47;;
53931;SDS011;39844;52.496;13.482;2024-02-28T09:37:22;6.70;;;4.33;;
53931;SDS011;39844;52.496;13.482;2024-02-28T09:39:50;5.47;;;4.47;;
53931;SDS011;39844;52.496;13.482;2024-02-28T09:42:15;8.17;;;5.20;;
53931;SDS011;39844;52.496;13.482;2024-02-28T09:44:41;7.73;;;4.53;;
53931;SDS011;39844;52.496;13.482;2024-02-28T09:47:07;8.20;;;5.37;;
53931;SDS011;39844;52.496;13.482;2024-02-28T09:49:33;9.53;;;5.73;;
53931;SDS011;39844;52.496;13.482;2024-02-28T09:52:00;10.77;;;5.80;;
53931;SDS011;39844;52.496;13.482;2024-02-28T09:54:26;9.27;;;5.30;;
53931;SDS011;39844;52.496;13.482;2024-02-28T09:56:52;8.57;;;5.43;;
53931;SDS011;39844;52.496;13.482;2024-02-28T09:59:18;8.67;;;5.00;;
53931;SDS011;39844;52.496;13.482;2024-02-28T10:01:43;10.13;;;5.67;;
53931;SDS011;39844;52.496;13.482;2024-02-28T10:04:18;7.87;;;5.97;;
53931;SDS011;39844;52.496;13.482;2024-02-28T10:06:45;6.87;;;5.20;;
53931;SDS011;39844;52.496;13.482;2024-02-28T10:09:11;7.20;;;5.07;;
53931;SDS011;39844;52.496;13.482;2024-02-28T10:11:36;9.33;;;6.23;;
53931;SDS011;39844;52.496;13.482;2024-02-28T10:14:01;7.60;;;5.30;;
53931;SDS011;39844;52.496;13.482;2024-02-28T10:16:27;8.33;;;5.50;;
53931;SDS011;39844;52.496;13.482;2024-02-28T10:18:52;7.60;;;4.90;;
53931;SDS011;39844;52.496;13.482;2024-02-28T10:21:18;9.10;;;5.77;;
53931;SDS011;39844;52.496;13.482;2024-02-28T10:23:44;8.13;;;5.57;;
53931;SDS011;39844;52.496;13.482;2024-02-28T10:26:10;10.90;;;6.27;;
53931;SDS011;39844;52.496;13.482;2024-02-28T10:28:36;10.37;;;5.73;;
53931;SDS011;39844;52.496;13.482;2024-02-28T10:31:03;17.70;;;7.50;;
53931;SDS011;39844;52.496;13.482;2024-02-28T10:33:29;11.33;;;6.87;;
53931;SDS011;39844;52.496;13.482;2024-02-28T10:35:55;11.90;;;5.80;;
53931;SDS011;39844;52.496;13.482;2024-02-28T10:38:21;11.07;;;6.53;;
53931;SDS011;39844;52.496;13.482;2024-02-28T10:40:46;14.77;;;6.93;;
53931;SDS011;39844;52.496;13.482;2024-02-28T10:43:12;10.33;;;5.83;;
53931;SDS011;39844;52.496;13.482;2024-02-28T10:45:40;10.80;;;5.30;;
53931;SDS011;39844;52.496;13.482;2024-02-28T10:48:07;9.50;;;5.87;;
53931;SDS011;39844;52.496;13.482;2024-02-28T10:50:33;9.83;;;5.90;;
53931;SDS011;39844;52.496;13.482;2024-02-28T10:53:00;10.23;;;6.67;;
53931;SDS011;39844;52.496;13.482;2024-02-28T10:55:27;10.87;;;5.90;;
53931;SDS011;39844;52.496;13.482;2024-02-28T10:58:02;10.60;;;5.80;;
53931;SDS011;39844;52.496;13.482;2024-02-28T11:00:31;8.67;;;5.67;;
53931;SDS011;39844;52.496;13.482;2024-02-28T11:02:57;8.00;;;6.40;;
53931;SDS011;39844;52.496;13.482;2024-02-28T11:05:24;12.13;;;6.50;;
53931;SDS011;39844;52.496;13.482;2024-02-28T11:08:03;10.10;;;7.00;;
53931;SDS011;39844;52.496;13.482;2024-02-28T11:10:32;9.33;;;5.53;;
53931;SDS011;39844;52.496;13.482;2024-02-28T11:12:58;10.97;;;6.43;;
53931;SDS011;39844;52.496;13.482;2024-02-28T11:15:24;11.27;;;5.57;;
53931;SDS011;39844;52.496;13.482;2024-02-28T11:17:50;14.40;;;5.83;;
53931;SDS011;39844;52.496;13.482;2024-02-28T11:20:15;10.70;;;7.13;;
53931;SDS011;39844;52.496;13.482;2024-02-28T11:22:41;14.10;;;7.40;;
53931;SDS011;39844;52.496;13.482;2024-02-28T11:25:06;12.67;;;5.43;;
53931;SDS011;39844;52.496;13.482;2024-02-28T11:27:31;11.80;;;6.57;;
53931;SDS011;39844;52.496;13.482;2024-02-28T11:29:57;11.97;;;6.20;;
53931;SDS011;39844;52.496;13.482;2024-02-28T11:32:24;16.37;;;7.33;;
53931;SDS011;39844;52.496;13.482;2024-02-28T11:34:50;14.00;;;6.73;;
53931;SDS011;39844;52.496;13.482;2024-02-28T11:37:15;13.23;;;7.43;;
53931;SDS011;39844;52.496;13.482;2024-02-28T11:39:40;12.87;;;7.20;;
53931;SDS011;39844;52.496;13.482;2024-02-28T11:42:12;16.13;;;8.07;;
53931;SDS011;39844;52.496;13.482;2024-02-28T11:44:39;11.60;;;7.37;;
53931;SDS011;39844;52.496;13.482;2024-02-28T11:47:04;10.57;;;6.83;;
53931;SDS011;39844;52.496;13.482;2024-02-28T11:49:32;14.70;;;7.23;;
53931;SDS011;39844;52.496;13.482;2024-02-28T11:51:58;9.67;;;6.13;;
53931;SDS011;39844;52.496;13.482;2024-02-28T11:54:23;13.70;;;6.53;;
53931;SDS011;39844;52.496;13.482;2024-02-28T11:56:48;12.70;;;6.57;;
53931;SDS011;39844;52.496;13.482;2024-02-28T11:59:13;10.67;;;5.93;;
53931;SDS011;39844;52.496;13.482;2024-02-28T12:01:40;10.40;;;6.10;;
53931;SDS011;39844;52.496;13.482;2024-02-28T12:04:07;11.20;;;6.43;;
53931;SDS011;39844;52.496;13.482;2024-02-28T12:06:36;8.97;;;5.90;;
53931;SDS011;39844;52.496;13.482;2024-02-28T12:09:02;9.77;;;5.53;;
53931;SDS011;39844;52.496;13.482;2024-02-28T12:11:29;9.87;;;5.67;;
53931;SDS011;39844;52.496;13.482;2024-02-28T12:13:56;9.27;;;5.50;;
53931;SDS011;39844;52.496;13.482;2024-02-28T12:16:22;8.67;;;5.43;;
53931;SDS011;39844;52.496;13.482;2024-02-28T12:18:53;8.00;;;5.40;;
53931;SDS011;39844;52.496;13.482;2024-02-28T12:21:19;7.87;;;5.40;;
53931;SDS011;39844;52.496;13.482;2024-02-28T12:23:46;8.97;;;5.30;;
53931;SDS011;39844;52.496;13.482;2024-02-28T12:26:11;10.20;;;5.73;;
53931;SDS011;39844;52.496;13.482;2024-02-28T12:28:37;8.57;;;5.13;;
53931;SDS011;39844;52.496;13.482;2024-02-28T12:31:02;8.57;;;5.10;;
53931;SDS011;39844;52.496;13.482;2024-02-28T12:33:27;9.30;;;5.17;;
53931;SDS011;39844;52.496;13.482;2024-02-28T12:35:53;7.60;;;5.10;;
53931;SDS011;39844;52.496;13.482;2024-02-28T12:38:18;7.73;;;5.07;;
53931;SDS011;39844;52.496;13.482;2024-02-28T12:40:43;7.53;;;5.63;;
53931;SDS011;39844;52.496;13.482;2024-02-28T12:43:08;8.10;;;4.73;;
53931;SDS011;39844;52.496;13.482;2024-02-28T12:45:36;8.10;;;4.77;;
53931;SDS011;39844;52.496;13.482;2024-02-28T12:48:01;7.57;;;4.40;;
53931;SDS011;39844;52.496;13.482;2024-02-28T12:50:27;8.47;;;5.30;;
53931;SDS011;39844;52.496;13.482;2024-02-28T12:52:52;7.40;;;4.77;;
53931;SDS011;39844;52.496;13.482;2024-02-28T12:55:17;7.40;;;4.63;;
53931;SDS011;39844;52.496;13.482;2024-02-28T12:57:42;9.60;;;5.47;;
53931;SDS011;39844;52.496;13.482;2024-02-28T13:00:08;7.73;;;5.33;;
53931;SDS011;39844;52.496;13.482;2024-02-28T13:02:33;8.00;;;5.00;;
53931;SDS011;39844;52.496;13.482;2024-02-28T13:04:59;8.20;;;5.87;;
53931;SDS011;39844;52.496;13.482;2024-02-28T13:07:24;8.60;;;5.70;;
53931;SDS011;39844;52.496;13.482;2024-02-28T13:09:49;7.03;;;4.50;;
53931;SDS011;39844;52.496;13.482;2024-02-28T13:12:14;9.10;;;4.43;;
53931;SDS011;39844;52.496;13.482;2024-02-28T13:14:42;5.73;;;4.60;;
53931;SDS011;39844;52.496;13.482;2024-02-28T13:17:07;9.00;;;5.70;;
53931;SDS011;39844;52.496;13.482;2024-02-28T13:19:32;7.77;;;5.20;;
53931;SDS011;39844;52.496;13.482;2024-02-28T13:21:58;10.67;;;5.67;;
53931;SDS011;39844;52.496;13.482;2024-02-28T13:24:23;8.00;;;5.70;;
53931;SDS011;39844;52.496;13.482;2024-02-28T13:26:48;8.40;;;5.03;;
53931;SDS011;39844;52.496;13.482;2024-02-28T13:29:14;8.47;;;5.67;;
53931;SDS011;39844;52.496;13.482;2024-02-28T13:31:39;10.23;;;5.87;;
53931;SDS011;39844;52.496;13.482;2024-02-28T13:34:04;9.20;;;5.70;;
53931;SDS011;39844;52.496;13.482;2024-02-28T13:36:30;9.33;;;6.07;;
53931;SDS011;39844;52.496;13.482;2024-02-28T13:38:55;6.70;;;5.30;;
53931;SDS011;39844;52.496;13.482;2024-02-28T13:41:20;7.47;;;5.17;;
53931;SDS011;39844;52.496;13.482;2024-02-28T13:43:45;9.10;;;5.90;;
53931;SDS011;39844;52.496;13.482;2024-02-28T13:46:11;7.43;;;5.37;;
53931;SDS011;39844;52.496;13.482;2024-02-28T13:48:36;5.70;;;4.70;;
53931;SDS011;39844;52.496;13.482;2024-02-28T13:51:01;10.80;;;5.60;;
53931;SDS011;39844;52.496;13.482;2024-02-28T13:53:27;8.20;;;5.30;;
53931;SDS011;39844;52.496;13.482;2024-02-28T13:55:52;8.23;;;5.27;;
53931;SDS011;39844;52.496;13.482;2024-02-28T13:58:17;7.43;;;5.27;;
53931;SDS011;39844;52.496;13.482;2024-02-28T14:00:46;11.03;;;5.83;;
53931;SDS011;39844;52.496;13.482;2024-02-28T14:03:11;9.57;;;5.07;;
53931;SDS011;39844;52.496;13.482;2024-02-28T14:05:37;9.83;;;5.70;;
53931;SDS011;39844;52.496;13.482;2024-02-28T14:08:02;8.87;;;5.40;;
53931;SDS011;39844;52.496;13.482;2024-02-28T14:10:28;8.23;;;5.23;;
53931;SDS011;39844;52.496;13.482;2024-02-28T14:12:56;7.20;;;5.00;;
53931;SDS011;39844;52.496;13.482;2024-02-28T14:15:21;10.13;;;5.27;;
53931;SDS011;39844;52.496;13.482;2024-02-28T14:17:47;8.50;;;4.97;;
53931;SDS011;39844;52.496;13.482;2024-02-28T14:20:12;7.77;;;5.13;;
53931;SDS011;39844;52.496;13.482;2024-02-28T14:22:37;7.00;;;4.90;;
53931;SDS011;39844;52.496;13.482;2024-02-28T14:25:03;7.93;;;4.37;;